Time;durP1;ratioP1;P1;durP2;ratioP2;P2;SDS_P1;SDS_P2;PMS_P1;PMS_P2;Temp;Humidity;BMP_temperature;BMP_pressure;BME280_temperature;BME280_humidity;BME280_pressure;Samples;Min_cycle;Max_cycle;Signal;HPM_P1;HPM_P2
2022/08/31 00:05:37;;;;;;;2.45;1.05;;;;;;;17.41;67.18;102264.09;5036624;28;20039;-78
2022/08/31 00:08:02;;;;;;;1.27;0.95;;;;;;;17.41;67.16;102248.22;5019660;28;20247;-78
2022/08/31 00:10:28;;;;;;;2.45;1.10;;;;;;;17.36;67.29;102256.34;5019217;28;20040;-78
2022/08/31 00:12:54;;;;;;;1.42;0.98;;;;;;;17.37;67.31;102247.50;5003057;28;20038;-78
2022/08/31 00:15:21;;;;;;;1.92;0.90;;;;;;;17.37;67.13;102259.84;5037374;28;20095;-78
2022/08/31 00:17:48;;;;;;;1.85;0.80;;;;;;;17.32;67.20;102257.44;5019624;28;20049;-78
2022/08/31 00:20:15;;;;;;;1.15;1.08;;;;;;;17.31;67.32;102254.84;5019635;28;20041;-78
2022/08/31 00:22:40;;;;;;;1.35;1.10;;;;;;;17.26;67.51;102255.06;5037128;28;20033;-78
2022/08/31 00:25:07;;;;;;;2.60;1.42;;;;;;;17.21;67.57;102263.22;5037411;28;20083;-78
2022/08/31 00:27:32;;;;;;;2.55;1.02;;;;;;;17.20;67.57;102256.19;5002285;28;20029;-78
2022/08/31 00:29:58;;;;;;;4.88;0.93;;;;;;;17.20;67.28;102260.66;5018919;28;20120;-78
2022/08/31 00:32:23;;;;;;;1.13;1.02;;;;;;;17.17;67.56;102253.72;5018802;28;20087;-78
2022/08/31 00:34:51;;;;;;;1.33;0.95;;;;;;;17.16;67.49;102256.44;5019573;28;20021;-78
2022/08/31 00:37:17;;;;;;;1.00;0.90;;;;;;;17.13;67.79;102254.75;5003001;28;20388;-78
2022/08/31 00:39:42;;;;;;;0.85;0.85;;;;;;;17.14;67.64;102253.00;5036952;28;20386;-78
2022/08/31 00:42:08;;;;;;;1.20;1.02;;;;;;;17.14;67.49;102260.94;5019455;28;20041;-78
2022/08/31 00:44:33;;;;;;;1.80;1.05;;;;;;;17.16;67.60;102256.44;5002018;28;20087;-78
2022/08/31 00:46:59;;;;;;;1.90;1.10;;;;;;;17.17;67.60;102266.06;5037118;28;20068;-78
2022/08/31 00:49:27;;;;;;;1.08;0.95;;;;;;;17.17;67.49;102252.84;5036169;28;20052;-78
2022/08/31 00:52:00;;;;;;;6.38;1.35;;;;;;;17.14;68.09;102255.66;5036466;28;20371;-78
2022/08/31 00:54:42;;;;;;;3.35;1.15;;;;;;;17.12;67.47;102263.66;5035168;28;20033;-78
2022/08/31 00:57:09;;;;;;;0.93;0.82;;;;;;;17.13;67.48;102257.41;5018692;28;20121;-78
2022/08/31 00:59:35;;;;;;;1.40;0.95;;;;;;;17.12;67.62;102253.06;5001868;28;20380;-78
2022/08/31 01:02:01;;;;;;;1.15;0.80;;;;;;;17.13;67.53;102256.56;5002193;28;20033;-78
2022/08/31 01:04:28;;;;;;;1.23;1.17;;;;;;;17.04;67.79;102265.78;5036132;28;20033;-78
2022/08/31 01:06:54;;;;;;;2.53;1.05;;;;;;;17.02;67.78;102264.97;5002269;28;20091;-78
2022/08/31 01:09:23;;;;;;;4.38;1.10;;;;;;;16.97;68.02;102270.50;5002235;28;20041;-78
2022/08/31 01:11:49;;;;;;;1.55;1.05;;;;;;;16.96;67.95;102265.28;5035906;28;20263;-78
2022/08/31 01:14:14;;;;;;;3.75;1.00;;;;;;;16.96;67.79;102263.47;5036137;28;20291;-78
2022/08/31 01:16:44;;;;;;;1.33;1.02;;;;;;;16.95;68.08;102259.09;5001879;28;20112;-78
2022/08/31 01:19:38;;;;;;;1.20;1.10;;;;;;;16.95;68.08;102260.91;5035403;28;20048;-78
2022/08/31 01:22:03;;;;;;;1.00;0.90;;;;;;;16.95;68.00;102258.25;5018268;28;20060;-78
2022/08/31 01:24:31;;;;;;;1.30;1.05;;;;;;;16.92;67.96;102259.25;5017945;28;20029;-78
2022/08/31 01:27:02;;;;;;;2.42;1.10;;;;;;;16.91;67.81;102249.59;5018431;28;20025;-78
2022/08/31 01:29:28;;;;;;;1.15;1.05;;;;;;;16.92;68.00;102251.31;5035207;28;20037;-78
2022/08/31 01:31:53;;;;;;;1.05;1.00;;;;;;;16.93;67.68;102255.66;4985781;28;20033;-78
2022/08/31 01:34:19;;;;;;;1.13;1.00;;;;;;;16.91;67.88;102260.16;5017909;28;20207;-78
2022/08/31 01:36:46;;;;;;;0.90;0.90;;;;;;;16.88;67.72;102253.25;5035794;28;20091;-78
2022/08/31 01:39:12;;;;;;;1.48;1.33;;;;;;;16.86;67.83;102259.50;5035737;28;20041;-78
2022/08/31 01:41:42;;;;;;;1.25;0.98;;;;;;;16.85;67.86;102256.03;5017842;28;20037;-78
2022/08/31 01:44:09;;;;;;;1.17;0.90;;;;;;;16.84;67.71;102256.94;5017823;28;20025;-78
2022/08/31 01:46:34;;;;;;;0.93;0.93;;;;;;;16.84;67.67;102262.22;5035192;28;20103;-78
2022/08/31 01:49:00;;;;;;;0.70;0.70;;;;;;;16.85;67.53;102263.94;5009517;28;20049;-78
2022/08/31 01:51:26;;;;;;;1.00;1.00;;;;;;;16.85;67.49;102261.31;5000880;28;20056;-78
2022/08/31 01:53:52;;;;;;;0.85;0.80;;;;;;;16.84;67.64;102264.03;5035699;28;20100;-78
2022/08/31 01:56:24;;;;;;;4.65;1.73;;;;;;;16.78;67.60;102269.56;4985299;28;20061;-78
2022/08/31 01:58:50;;;;;;;1.40;1.30;;;;;;;16.77;67.70;102265.19;5017393;28;20138;-78
2022/08/31 02:01:16;;;;;;;1.13;1.02;;;;;;;16.75;67.72;102267.88;5017423;28;20037;-78
2022/08/31 02:03:41;;;;;;;1.15;0.90;;;;;;;16.75;67.65;102261.75;5000918;28;20356;-78
2022/08/31 02:06:09;;;;;;;1.88;0.80;;;;;;;16.75;67.41;102267.03;5017792;28;20056;-78
2022/08/31 02:08:36;;;;;;;0.70;0.70;;;;;;;16.73;67.66;102258.31;5016759;28;20033;-78
2022/08/31 02:11:02;;;;;;;1.00;0.73;;;;;;;16.73;67.69;102259.16;5017365;28;20084;-78
2022/08/31 02:13:27;;;;;;;1.00;0.90;;;;;;;16.71;67.44;102263.66;5016407;28;20033;-78
2022/08/31 02:15:53;;;;;;;1.73;0.77;;;;;;;16.70;67.51;102256.69;5017786;28;20041;-78
2022/08/31 02:18:18;;;;;;;0.95;0.70;;;;;;;16.68;67.45;102261.16;4984310;28;20033;-78
2022/08/31 02:20:43;;;;;;;1.00;0.88;;;;;;;16.66;67.70;102255.97;5016861;28;20096;-78
2022/08/31 02:23:09;;;;;;;0.80;0.80;;;;;;;16.67;67.32;102262.09;5017208;28;20312;-78
2022/08/31 02:25:34;;;;;;;0.95;0.88;;;;;;;16.66;67.66;102257.72;5034416;28;20271;-78
2022/08/31 02:28:00;;;;;;;1.80;0.93;;;;;;;16.67;67.37;102262.09;5017169;28;20108;-78
2022/08/31 02:30:25;;;;;;;1.88;1.00;;;;;;;16.63;67.52;102256.06;5016565;28;20287;-78
2022/08/31 02:32:51;;;;;;;0.73;0.70;;;;;;;16.63;67.54;102263.16;5000912;28;20261;-78
2022/08/31 02:35:16;;;;;;;0.80;0.80;;;;;;;16.61;67.32;102257.94;5016815;28;20057;-78
2022/08/31 02:37:42;;;;;;;0.98;0.98;;;;;;;16.60;67.42;102250.06;5033580;28;20059;-78
2022/08/31 02:40:09;;;;;;;1.15;0.80;;;;;;;16.58;67.45;102255.41;5016706;28;20034;-78
2022/08/31 02:42:36;;;;;;;2.58;0.90;;;;;;;16.57;67.42;102259.00;5034447;28;20041;-78
2022/08/31 02:45:01;;;;;;;1.13;0.90;;;;;;;16.57;67.53;102255.47;5034436;28;20232;-78
2022/08/31 02:47:29;;;;;;;1.27;0.82;;;;;;;16.56;67.16;102264.34;5033959;28;20041;-78
2022/08/31 02:49:54;;;;;;;1.00;0.80;;;;;;;16.54;67.31;102248.56;5017013;28;20061;-78
2022/08/31 02:52:20;;;;;;;1.15;1.08;;;;;;;16.56;67.29;102265.19;5016748;28;20148;-78
2022/08/31 02:54:45;;;;;;;2.90;0.70;;;;;;;16.55;67.51;102265.25;5016703;28;20479;-78
2022/08/31 02:57:10;;;;;;;0.90;0.90;;;;;;;16.55;67.51;102258.19;5000663;28;20049;-79
2022/08/31 02:59:36;;;;;;;1.02;0.93;;;;;;;16.53;67.44;102267.97;5033017;28;20056;-78
2022/08/31 03:02:01;;;;;;;1.42;0.80;;;;;;;16.54;67.48;102260.91;5033596;28;20060;-78
2022/08/31 03:04:28;;;;;;;0.95;0.80;;;;;;;16.53;67.19;102264.47;4997261;28;20052;-78
2022/08/31 03:06:54;;;;;;;1.02;1.00;;;;;;;16.49;67.10;102264.59;5029727;28;20105;-78
2022/08/31 03:09:20;;;;;;;4.53;1.02;;;;;;;16.46;67.07;102269.16;5016228;28;20271;-78
2022/08/31 03:11:45;;;;;;;0.80;0.80;;;;;;;16.44;67.09;102268.38;5033753;28;20368;-78
2022/08/31 03:14:11;;;;;;;2.35;0.98;;;;;;;16.42;67.34;102259.66;4999802;28;20100;-78
2022/08/31 03:16:39;;;;;;;1.70;0.85;;;;;;;16.42;67.26;102264.94;5033479;28;20063;-78
2022/08/31 03:19:05;;;;;;;0.80;0.80;;;;;;;16.40;67.38;102261.50;5037061;28;20041;-78
2022/08/31 03:21:30;;;;;;;1.00;1.00;;;;;;;16.32;67.49;102259.19;5037699;28;20033;-78
2022/08/31 03:23:57;;;;;;;1.10;0.98;;;;;;;16.32;67.29;102261.84;5038202;28;20156;-78
2022/08/31 03:26:22;;;;;;;0.82;0.80;;;;;;;16.29;67.56;102262.81;5003671;28;20044;-78
2022/08/31 03:28:48;;;;;;;1.23;1.00;;;;;;;16.23;67.46;102257.78;5038212;28;20041;-78
2022/08/31 03:31:13;;;;;;;2.00;0.80;;;;;;;16.22;67.64;102250.75;5003490;28;20352;-78
2022/08/31 03:33:39;;;;;;;0.88;0.88;;;;;;;16.21;67.76;102258.75;5019693;28;20045;-78
2022/08/31 03:36:04;;;;;;;0.90;0.82;;;;;;;16.19;68.09;102265.91;5004308;28;20049;-78
2022/08/31 03:38:30;;;;;;;1.00;0.90;;;;;;;16.17;68.05;102268.63;5036367;28;20375;-78
2022/08/31 03:40:56;;;;;;;1.00;0.80;;;;;;;16.18;68.03;102272.97;4987933;28;20025;-78
2022/08/31 03:43:21;;;;;;;0.98;0.88;;;;;;;16.20;68.01;102271.13;5019784;28;20045;-80
2022/08/31 03:45:48;;;;;;;0.70;0.70;;;;;;;16.19;67.81;102274.72;5037565;28;20243;-78
2022/08/31 03:48:14;;;;;;;1.05;1.05;;;;;;;16.19;67.71;102269.41;5019311;28;20095;-78
2022/08/31 03:50:41;;;;;;;0.82;0.68;;;;;;;16.20;67.81;102272.91;5037169;28;20042;-79
2022/08/31 03:53:07;;;;;;;1.27;0.98;;;;;;;16.20;67.73;102279.03;5020099;28;20044;-78
2022/08/31 03:55:36;;;;;;;1.85;0.90;;;;;;;16.19;67.79;102269.41;5019709;28;20025;-78
2022/08/31 03:58:02;;;;;;;1.30;1.20;;;;;;;16.15;67.71;102265.16;5019165;28;20055;-78
2022/08/31 04:00:27;;;;;;;0.93;0.80;;;;;;;16.14;67.88;102274.03;5019037;28;20077;-78
2022/08/31 04:02:56;;;;;;;1.52;1.05;;;;;;;16.11;67.96;102274.16;5019288;28;20042;-78
2022/08/31 04:05:21;;;;;;;1.48;1.00;;;;;;;16.12;68.00;102273.25;5016959;28;20037;-78
2022/08/31 04:07:46;;;;;;;0.98;0.85;;;;;;;16.12;67.94;102275.88;5002623;28;20391;-78
2022/08/31 04:10:13;;;;;;;0.80;0.80;;;;;;;16.11;67.94;102276.78;5003326;28;20029;-78
2022/08/31 04:12:39;;;;;;;2.30;0.95;;;;;;;16.10;67.98;102272.44;5036542;28;20095;-78
2022/08/31 04:15:06;;;;;;;1.73;1.05;;;;;;;16.09;67.98;102276.00;5037122;28;20068;-78
2022/08/31 04:17:32;;;;;;;0.80;0.80;;;;;;;16.09;67.97;102276.00;5025067;28;20039;-78
2022/08/31 04:19:57;;;;;;;0.90;0.90;;;;;;;16.06;67.93;102278.75;5037291;28;20355;-78
2022/08/31 04:22:23;;;;;;;1.02;0.90;;;;;;;16.05;67.92;102275.25;5036781;28;20359;-78
2022/08/31 04:24:48;;;;;;;2.17;1.08;;;;;;;16.05;68.25;102280.53;5002958;28;20140;-78
2022/08/31 04:27:13;;;;;;;0.93;0.85;;;;;;;16.03;67.83;102279.75;5002789;28;20262;-78
2022/08/31 04:29:39;;;;;;;1.10;0.85;;;;;;;16.05;67.91;102284.97;5019011;28;20083;-78
2022/08/31 04:32:04;;;;;;;1.15;1.15;;;;;;;16.05;68.14;102282.34;5018944;28;20362;-78
2022/08/31 04:34:30;;;;;;;1.20;1.15;;;;;;;16.04;67.95;102289.38;5006262;28;20263;-78
2022/08/31 04:36:55;;;;;;;2.25;0.90;;;;;;;16.01;67.86;102281.59;5035819;28;20048;-78
2022/08/31 04:39:21;;;;;;;1.60;1.00;;;;;;;16.02;68.10;102285.09;5035540;28;20232;-78
2022/08/31 04:41:47;;;;;;;0.90;0.90;;;;;;;15.98;67.89;102286.16;5000091;28;20037;-78
2022/08/31 04:44:12;;;;;;;0.77;0.77;;;;;;;15.98;67.92;102289.66;5017188;28;20040;-78
2022/08/31 04:46:38;;;;;;;2.20;1.02;;;;;;;15.98;67.84;102294.06;5001340;28;20033;-78
2022/08/31 04:49:06;;;;;;;3.22;0.80;;;;;;;15.96;67.74;102286.22;5030909;28;20078;-78
2022/08/31 04:51:35;;;;;;;0.97;0.70;;;;;;;15.96;67.87;102286.22;5034296;28;20057;-78
2022/08/31 04:54:04;;;;;;;1.02;0.73;;;;;;;15.97;68.04;102287.06;5034669;28;20029;-78
2022/08/31 04:56:33;;;;;;;1.17;0.75;;;;;;;15.95;67.64;102291.56;5034510;28;20029;-78
2022/08/31 04:59:01;;;;;;;1.58;0.75;;;;;;;15.94;67.64;102290.69;5034630;28;20272;-78
2022/08/31 05:01:31;;;;;;;1.00;0.90;;;;;;;15.96;67.59;102295.94;5034519;28;20622;-78
2022/08/31 05:03:56;;;;;;;0.80;0.80;;;;;;;15.93;67.45;102296.88;5035124;28;20236;-78
2022/08/31 05:06:24;;;;;;;1.17;0.70;;;;;;;15.93;67.43;102303.06;5016646;28;20033;-78
2022/08/31 05:08:54;;;;;;;0.80;0.70;;;;;;;15.91;67.42;102296.09;5035100;28;20228;-78
2022/08/31 05:11:21;;;;;;;0.80;0.65;;;;;;;15.91;67.24;102301.38;5028431;28;20037;-78
2022/08/31 05:13:47;;;;;;;0.90;0.90;;;;;;;15.88;67.25;102293.56;5027412;28;20108;-78
2022/08/31 05:16:14;;;;;;;0.88;0.88;;;;;;;15.86;66.99;102298.94;5011149;28;20047;-78
2022/08/31 05:18:42;;;;;;;1.75;0.60;;;;;;;15.84;66.85;102303.38;5026704;28;20045;-78
2022/08/31 05:21:15;;;;;;;1.40;0.80;;;;;;;15.82;66.68;102299.97;5023927;28;20168;-78
2022/08/31 05:23:44;;;;;;;0.80;0.63;;;;;;;15.79;66.93;102299.22;5023784;28;20068;-78
2022/08/31 05:26:15;;;;;;;;;;;;;;;15.75;66.48;102309.03;5024409;28;20096;-78
2022/08/31 05:28:40;;;;;;;0.65;0.65;;;;;;;15.73;66.65;102300.28;5026938;28;20215;-78
2022/08/31 05:31:05;;;;;;;1.00;0.70;;;;;;;15.70;66.26;102300.44;4989162;28;20072;-78
2022/08/31 05:33:31;;;;;;;1.17;0.70;;;;;;;15.68;65.76;102302.25;5020889;28;20047;-78
2022/08/31 05:36:00;;;;;;;0.80;0.70;;;;;;;15.64;65.86;102300.66;4992940;28;20302;-78
2022/08/31 05:38:25;;;;;;;;;;;;;;;15.58;65.19;102300.91;5007713;28;20336;-78
2022/08/31 05:40:52;;;;;;;1.27;1.17;;;;;;;15.55;65.55;102297.47;5023380;28;19985;-78
2022/08/31 05:43:18;;;;;;;1.95;0.70;;;;;;;15.56;65.39;102300.94;4990519;28;20644;-78
2022/08/31 05:45:44;;;;;;;1.98;0.50;;;;;;;15.55;65.15;102302.75;5026201;28;20029;-78
2022/08/31 05:48:09;;;;;;;0.60;0.60;;;;;;;15.52;64.92;102300.22;5023312;28;20121;-78
2022/08/31 05:50:36;;;;;;;1.88;0.60;;;;;;;15.52;64.98;102307.28;4993628;28;20351;-78
2022/08/31 05:53:02;;;;;;;0.65;0.65;;;;;;;15.51;64.61;102306.41;5024093;28;20045;-78
2022/08/31 05:55:28;;;;;;;0.40;0.40;;;;;;;15.50;64.48;102304.69;5012787;28;20033;-78
2022/08/31 05:57:53;;;;;;;1.08;0.50;;;;;;;15.45;64.13;102305.78;5027511;28;20044;-78
2022/08/31 06:00:19;;;;;;;0.60;0.60;;;;;;;15.44;63.81;102307.53;5025105;28;20081;-78
2022/08/31 06:02:44;;;;;;;1.90;0.55;;;;;;;15.40;63.71;102307.72;5006846;28;20098;-78
2022/08/31 06:05:09;;;;;;;0.63;0.60;;;;;;;15.39;63.58;102322.72;4994748;28;20380;-78
2022/08/31 06:07:35;;;;;;;0.82;0.70;;;;;;;15.39;63.75;102317.44;4981295;28;20344;-78
2022/08/31 06:10:01;;;;;;;0.95;0.52;;;;;;;15.36;63.07;102310.47;5006121;28;20042;-78
2022/08/31 06:12:27;;;;;;;1.70;0.68;;;;;;;15.34;63.39;102319.38;5012151;28;20096;-78
2022/08/31 06:14:54;;;;;;;0.70;0.43;;;;;;;15.30;63.07;102323.91;5012003;28;20041;-78
2022/08/31 06:17:19;;;;;;;6.90;0.50;;;;;;;15.33;62.89;102318.53;5004314;28;20050;-78
2022/08/31 06:19:45;;;;;;;1.42;0.50;;;;;;;15.32;62.88;102323.88;5002751;28;20044;-78
2022/08/31 06:22:10;;;;;;;0.40;0.40;;;;;;;15.32;62.41;102322.06;5012376;28;20041;-78
2022/08/31 06:24:36;;;;;;;1.27;0.60;;;;;;;15.32;62.52;102322.06;5011823;28;20037;-78
2022/08/31 06:27:04;;;;;;;0.70;0.47;;;;;;;15.32;62.38;102322.06;4980574;28;20021;-78
2022/08/31 06:29:31;;;;;;;0.93;0.50;;;;;;;15.32;62.15;102322.06;5013209;28;20036;-78
2022/08/31 06:31:56;;;;;;;0.60;0.60;;;;;;;15.30;62.00;102329.19;5010434;28;20030;-78
2022/08/31 06:34:23;;;;;;;2.58;0.50;;;;;;;15.31;62.15;102330.91;5003505;28;20060;-78
2022/08/31 06:36:49;;;;;;;2.55;0.52;;;;;;;15.28;62.13;102330.16;4990381;28;20061;-78
2022/08/31 06:39:15;;;;;;;0.85;0.60;;;;;;;15.30;62.35;102328.34;5007983;28;20415;-78
2022/08/31 06:41:41;;;;;;;0.55;0.55;;;;;;;15.31;62.31;102330.03;5012415;28;20044;-78
2022/08/31 06:44:09;;;;;;;2.35;0.40;;;;;;;15.31;62.52;102322.13;5011606;28;20056;-78
2022/08/31 06:46:35;;;;;;;;;;;;;;;15.34;62.47;102328.16;5013217;28;20033;-77
2022/08/31 06:49:01;;;;;;;0.68;0.55;;;;;;;15.36;62.50;102331.59;5012181;28;19956;-77
2022/08/31 06:51:27;;;;;;;1.13;0.70;;;;;;;15.37;62.81;102327.16;5004284;28;20038;-78
2022/08/31 06:53:53;;;;;;;1.83;0.75;;;;;;;15.38;62.84;102330.69;5010200;28;20258;-77
2022/08/31 06:56:24;;;;;;;0.65;0.60;;;;;;;15.39;63.05;102327.13;4995250;28;20038;-78
2022/08/31 06:58:51;;;;;;;1.67;0.88;;;;;;;15.41;62.47;102330.56;5011660;28;20380;-78
2022/08/31 07:01:19;;;;;;;2.40;0.52;;;;;;;15.43;62.72;102329.59;5010445;28;20033;-78
2022/08/31 07:03:47;;;;;;;3.95;0.63;;;;;;;15.44;62.60;102339.22;5011922;28;20403;-78
2022/08/31 07:06:15;;;;;;;0.68;0.68;;;;;;;15.45;62.69;102343.59;5003037;28;20088;-78
2022/08/31 07:08:43;;;;;;;3.05;0.70;;;;;;;15.48;63.30;102345.25;5007192;28;20332;-78
2022/08/31 07:11:22;;;;;;;1.25;0.60;;;;;;;15.51;63.47;102346.00;5010944;28;20041;-78
2022/08/31 07:13:48;;;;;;;3.55;0.75;;;;;;;15.54;63.56;102351.16;5009949;28;20069;-78
2022/08/31 07:16:16;;;;;;;6.38;0.93;;;;;;;15.57;63.35;102349.34;5007758;28;20046;-78
2022/08/31 07:18:42;;;;;;;1.05;0.75;;;;;;;15.59;62.96;102353.66;5004638;28;20072;-78
2022/08/31 07:21:12;;;;;;;3.00;0.60;;;;;;;15.63;63.24;102346.47;5007948;28;20252;-80
2022/08/31 07:23:38;;;;;;;1.48;0.60;;;;;;;15.66;63.29;102348.97;5003017;28;20091;-78
2022/08/31 07:26:09;;;;;;;1.10;0.70;;;;;;;15.70;63.34;102353.25;4986166;28;20025;-78
2022/08/31 07:28:37;;;;;;;2.90;0.70;;;;;;;15.73;62.95;102351.34;5005639;28;20044;-80
2022/08/31 07:31:04;;;;;;;4.35;1.15;;;;;;;15.76;62.82;102354.81;5003487;28;20038;-80
2022/08/31 07:33:36;;;;;;;1.20;0.70;;;;;;;15.81;62.80;102344.91;4988186;28;20034;-80
2022/08/31 07:36:06;;;;;;;0.70;0.60;;;;;;;15.84;63.36;102340.38;5001953;28;20423;-80
2022/08/31 07:42:08;;;;;;;1.20;0.68;;;;;;;15.98;62.77;102352.19;5002370;28;20061;-78
2022/08/31 07:44:23;;;;;;;3.30;0.60;;;;;;;16.02;62.55;102348.50;5008738;28;20057;-78
2022/08/31 07:46:54;;;;;;;5.45;0.65;;;;;;;16.06;62.69;102350.09;5010760;28;20061;-78
2022/08/31 07:49:20;;;;;;;3.38;0.63;;;;;;;16.12;62.97;102350.72;5011531;28;20045;-78
2022/08/31 07:51:50;;;;;;;3.03;0.70;;;;;;;16.17;63.09;102347.91;5011148;28;20088;-80
2022/08/31 07:54:22;;;;;;;3.83;0.90;;;;;;;16.23;63.01;102352.09;5010362;28;20321;-81
2022/08/31 07:56:49;;;;;;;4.60;0.98;;;;;;;16.30;62.78;102351.78;5011775;28;20038;-78
2022/08/31 07:59:21;;;;;;;2.83;0.85;;;;;;;16.38;61.82;102355.88;5020109;28;20049;-78
2022/08/31 08:01:47;;;;;;;2.72;0.68;;;;;;;16.41;61.79;102355.75;5024167;28;20034;-80
2022/08/31 08:04:23;;;;;;;9.63;1.10;;;;;;;16.51;61.19;102362.38;5032364;28;20037;-80
2022/08/31 08:06:49;;;;;;;1.25;0.90;;;;;;;16.56;60.88;102362.22;5017102;28;20283;-80
2022/08/31 08:09:14;;;;;;;1.35;1.00;;;;;;;16.57;61.06;102359.50;5034774;28;20037;-80
2022/08/31 08:11:43;;;;;;;0.95;0.60;;;;;;;16.60;61.05;102367.28;5016480;28;20044;-80
2022/08/31 08:14:11;;;;;;;3.85;1.00;;;;;;;16.64;60.64;102362.72;5023321;28;20108;-80
2022/08/31 08:16:37;;;;;;;2.55;0.70;;;;;;;16.66;60.59;102359.13;5033267;28;20057;-80
2022/08/31 08:19:04;;;;;;;3.28;0.70;;;;;;;16.70;60.26;102362.50;5031290;28;20112;-80
2022/08/31 08:21:29;;;;;;;2.90;0.88;;;;;;;16.73;60.43;102362.34;5030060;28;20037;-80
2022/08/31 08:23:55;;;;;;;0.90;0.75;;;;;;;16.75;60.51;102365.78;5032212;28;20044;-80
2022/08/31 08:26:21;;;;;;;6.22;1.00;;;;;;;16.80;60.79;102363.78;5014139;28;20049;-80
2022/08/31 08:28:47;;;;;;;1.70;0.70;;;;;;;16.85;60.31;102368.94;5013878;28;20064;-80
2022/08/31 08:31:15;;;;;;;0.73;0.55;;;;;;;16.89;60.13;102370.53;4995787;28;20230;-80
2022/08/31 08:33:41;;;;;;;;;;;;;;;16.94;60.69;102373.84;5013705;28;20040;-80
2022/08/31 08:36:07;;;;;;;3.00;0.80;;;;;;;16.99;60.56;102371.84;5015933;28;20111;-80
2022/08/31 08:38:35;;;;;;;2.30;0.55;;;;;;;16.99;60.67;102374.50;5033751;28;20039;-80
2022/08/31 08:41:05;;;;;;;4.43;0.85;;;;;;;17.04;60.57;102375.13;5014623;28;20033;-80
2022/08/31 08:43:41;;;;;;;4.40;0.90;;;;;;;17.13;60.21;102375.69;5033965;28;20175;-81
2022/08/31 08:46:09;;;;;;;2.28;0.60;;;;;;;17.17;59.81;102374.59;5014399;28;20136;-80
2022/08/31 08:48:39;;;;;;;1.70;0.83;;;;;;;17.19;59.96;102368.34;5001114;28;20493;-80
2022/08/31 08:51:17;;;;;;;1.65;0.50;;;;;;;17.22;60.04;102364.69;5015867;28;20634;-80
2022/08/31 08:53:47;;;;;;;0.80;0.80;;;;;;;17.29;60.01;102365.28;5015985;28;20336;-81
2022/08/31 08:56:13;;;;;;;2.22;0.68;;;;;;;17.31;60.35;102369.56;5034385;28;20177;-80
2022/08/31 08:58:43;;;;;;;2.08;0.90;;;;;;;17.39;60.47;102374.50;4999783;28;20343;-81
2022/08/31 09:01:14;;;;;;;1.38;0.70;;;;;;;17.48;60.03;102375.88;5034690;28;20312;-80
2022/08/31 09:03:53;;;;;;;2.92;0.73;;;;;;;17.53;59.50;102380.03;5033737;28;20041;-81
2022/08/31 09:06:24;;;;;;;;;;;;;;;17.57;59.56;102378.09;5016578;28;20402;-80
2022/08/31 09:09:23;;;;;;;1.00;0.80;;;;;;;17.59;59.45;102373.59;5014941;28;19916;-80
2022/08/31 09:11:53;;;;;;;1.65;0.70;;;;;;;17.65;59.54;102378.63;5032371;28;20092;-80
2022/08/31 09:14:23;;;;;;;3.03;0.90;;;;;;;17.69;59.58;102380.19;5015587;28;20041;-80
2022/08/31 09:17:29;;;;;;;1.83;0.80;;;;;;;17.74;59.83;102378.19;5032417;28;20057;-80
2022/08/31 09:19:59;;;;;;;7.55;0.90;;;;;;;17.85;59.01;102385.69;4971221;28;20041;-80
2022/08/31 09:22:26;;;;;;;1.08;0.95;;;;;;;17.89;58.98;102378.44;5013365;28;20337;-80
2022/08/31 09:24:55;;;;;;;3.58;0.88;;;;;;;17.92;59.18;102386.22;5015183;28;20036;-80
2022/08/31 09:27:56;;;;;;;4.03;1.02;;;;;;;17.95;59.41;102386.94;5000726;28;20615;-80
2022/08/31 09:30:34;;;;;;;1.38;1.27;;;;;;;18.04;59.28;102380.34;5032549;28;20234;-80
2022/08/31 09:32:59;;;;;;;;;;;;;;;18.08;59.59;102381.97;5033655;28;20045;-80
2022/08/31 09:35:35;;;;;;;3.90;0.93;;;;;;;18.10;59.13;102379.19;5015605;28;20172;-80
2022/08/31 09:38:06;;;;;;;3.78;1.35;;;;;;;18.12;59.70;102374.69;5014910;28;20218;-80
2022/08/31 09:40:42;;;;;;;3.38;1.00;;;;;;;18.15;59.35;102371.91;5038268;28;20025;-78
2022/08/31 09:43:28;;;;;;;4.50;0.80;;;;;;;18.18;60.20;102367.31;5015541;28;20041;-80
2022/08/31 09:46:06;;;;;;;2.55;0.98;;;;;;;18.21;59.94;102371.63;5033084;28;20052;-80
2022/08/31 09:48:55;;;;;;;2.35;1.30;;;;;;;18.28;60.02;102367.72;5031365;28;20521;-80
2022/08/31 09:51:29;;;;;;;1.08;0.85;;;;;;;18.33;59.75;102376.28;5024358;28;20033;-80
2022/08/31 09:56:59;;;;;;;2.50;1.02;;;;;;;18.36;59.46;102368.19;5025910;28;20232;-80
2022/08/31 09:59:27;;;;;;;;;;;;;;;18.37;59.99;102363.75;5033352;28;20120;-80
2022/08/31 10:01:54;;;;;;;6.50;1.27;;;;;;;18.42;59.75;102361.72;5032804;28;20034;-80
2022/08/31 10:04:27;;;;;;;3.20;0.90;;;;;;;18.48;59.37;102352.59;5032477;28;20033;-80
2022/08/31 10:07:00;;;;;;;6.00;1.25;;;;;;;18.52;59.23;102355.03;5014184;28;20037;-80
2022/08/31 10:09:34;;;;;;;4.68;1.00;;;;;;;18.59;58.67;102355.56;5032570;28;20262;-80
2022/08/31 10:12:05;;;;;;;1.73;1.10;;;;;;;18.63;58.55;102351.84;5014389;28;20033;-78
2022/08/31 10:14:40;;;;;;;1.05;0.70;;;;;;;18.65;58.21;102344.66;5014083;28;20249;-80
2022/08/31 10:17:13;;;;;;;2.17;0.90;;;;;;;18.68;57.55;102346.28;5032278;28;20458;-80
2022/08/31 10:19:52;;;;;;;4.30;1.15;;;;;;;18.77;57.42;102344.03;5009071;28;20029;-80
2022/08/31 10:22:30;;;;;;;2.85;1.02;;;;;;;18.80;58.08;102341.22;5032441;28;20037;-80
2022/08/31 10:25:03;;;;;;;;;;;;;;;18.88;57.46;102343.53;5015021;28;20025;-80
2022/08/31 10:27:37;;;;;;;6.88;1.27;;;;;;;18.89;57.32;102347.88;5031990;28;19959;-81
2022/08/31 10:30:27;;;;;;;1.42;0.95;;;;;;;18.91;57.65;102331.88;5032515;28;20363;-80
2022/08/31 10:32:52;;;;;;;5.32;1.10;;;;;;;18.93;57.34;102337.94;5014672;28;20029;-80
2022/08/31 10:35:25;;;;;;;2.40;1.10;;;;;;;18.98;56.21;102343.88;5032729;28;20352;-81
2022/08/31 10:38:16;;;;;;;2.85;1.13;;;;;;;18.98;57.00;102336.78;5032558;28;20037;-80
2022/08/31 10:40:50;;;;;;;5.53;1.45;;;;;;;19.05;57.52;102328.50;5003595;28;20710;-81
2022/08/31 10:43:20;;;;;;;3.92;0.98;;;;;;;19.09;56.88;102338.00;5023702;28;20447;-80
2022/08/31 10:45:51;;;;;;;3.38;1.10;;;;;;;19.14;56.25;102328.84;5013101;28;20343;-80
2022/08/31 10:48:20;;;;;;;5.50;1.17;;;;;;;19.20;56.04;102326.81;5032095;28;20037;-78
2022/08/31 10:50:57;;;;;;;8.38;1.10;;;;;;;19.21;55.97;102326.75;5032147;28;20096;-78
2022/08/31 10:53:35;;;;;;;1.15;0.90;;;;;;;19.24;56.76;102331.03;5030772;28;20087;-78
2022/08/31 10:56:17;;;;;;;3.38;1.30;;;;;;;19.30;56.50;102328.91;5033352;28;20034;-80
2022/08/31 10:58:55;;;;;;;1.45;0.90;;;;;;;19.34;56.89;102332.25;5032479;28;20372;-80
2022/08/31 11:01:45;;;;;;;3.87;1.17;;;;;;;19.35;56.46;102332.16;5016164;28;20056;-80
2022/08/31 11:04:27;;;;;;;2.00;1.15;;;;;;;19.36;56.15;102333.88;5029348;28;20044;-80
2022/08/31 11:07:30;;;;;;;1.25;1.00;;;;;;;19.42;56.51;102330.03;5028860;28;20334;-80
2022/08/31 11:10:25;;;;;;;2.80;1.30;;;;;;;19.44;56.95;102328.13;5033756;28;20354;-80
2022/08/31 11:12:59;;;;;;;1.30;1.20;;;;;;;19.48;56.46;102331.47;5013885;28;20376;-80
2022/08/31 11:15:42;;;;;;;5.25;1.48;;;;;;;19.53;56.66;102324.97;5029535;28;20364;-80
2022/08/31 11:18:28;;;;;;;1.95;1.00;;;;;;;19.54;56.57;102329.34;5033296;28;20029;-78
2022/08/31 11:21:25;;;;;;;7.05;1.42;;;;;;;19.56;56.36;102326.63;5031927;28;20119;-80
2022/08/31 11:24:11;;;;;;;1.20;1.10;;;;;;;19.59;56.84;102331.75;5030953;28;20044;-78
2022/08/31 11:26:49;;;;;;;3.35;1.30;;;;;;;19.63;56.49;102327.13;5030714;28;20033;-78
2022/08/31 11:29:27;;;;;;;3.45;1.45;;;;;;;19.69;55.88;102325.00;5032915;28;20440;-78
2022/08/31 11:31:56;;;;;;;6.90;1.17;;;;;;;19.77;55.33;102329.06;5029624;28;20258;-80
2022/08/31 11:34:27;;;;;;;6.40;1.50;;;;;;;19.83;55.71;102318.94;5031697;28;20102;-78
2022/08/31 11:36:56;;;;;;;1.85;0.98;;;;;;;19.86;55.71;102318.75;5031819;28;20037;-78
2022/08/31 11:39:34;;;;;;;1.38;1.00;;;;;;;19.88;55.59;102314.22;5034479;28;20191;-78
2022/08/31 11:42:11;;;;;;;2.10;1.20;;;;;;;19.94;55.48;102303.22;5024717;28;20060;-78
2022/08/31 11:44:38;;;;;;;3.20;1.05;;;;;;;20.01;55.43;102301.09;5016262;28;20025;-80
2022/08/31 11:47:06;;;;;;;2.13;1.00;;;;;;;20.09;55.35;102296.16;5036899;28;20029;-78